Time,TemperatureF,DewpointF,PressureIn,WindDirection,WindDirectionDegrees,WindSpeedMPH,WindSpeedGustMPH,Humidity,HourlyPrecipIn,Conditions,Clouds,dailyrainin,SoftwareType,DateUTC
2013-01-26 00:02:00,31.0,31.0,-100.00,North,-999,0.0,0.0,97,-99.99,,,-99.99,,2013-01-26 08:02:00,
2013-01-26 00:11:00,32.0,31.0,-100.00,SSW,205,0.0,0.0,97,-99.99,,,-99.99,,2013-01-26 08:11:00,
2013-01-26 00:21:00,32.0,31.0,-100.00,North,-999,0.0,0.0,97,-99.99,,,-99.99,,2013-01-26 08:21:00,
2013-01-26 00:31:00,32.0,31.0,-100.00,SSW,208,0.0,0.0,97,-99.99,,,-99.99,,2013-01-26 08:31:00,
2013-01-26 00:41:00,32.0,31.0,-100.00,SSW,196,0.0,0.0,97,-99.99,,,-99.99,,2013-01-26 08:41:00,
2013-01-26 00:53:00,32.0,31.0,-100.00,SSW,195,0.0,1.0,97,-99.99,,,-99.99,,2013-01-26 08:53:00,
2013-01-26 01:02:00,32.0,31.0,-100.00,North,-999,0.0,0.0,97,-99.99,,,-99.99,,2013-01-26 09:02:00,
2013-01-26 01:11:00,32.0,31.0,-100.00,North,-999,0.0,0.0,97,-99.99,,,-99.99,,2013-01-26 09:11:00,
2013-01-26 01:22:00,32.0,31.0,-100.00,North,-999,0.0,0.0,97,-99.99,,,-99.99,,2013-01-26 09:22:00,
2013-01-26 01:31:00,32.0,31.0,-100.00,North,-999,0.0,0.0,97,-99.99,,,-99.99,,2013-01-26 09:31:00,
2013-01-26 01:42:00,32.0,31.0,-100.00,North,-999,0.0,0.0,97,-99.99,,,-99.99,,2013-01-26 09:42:00,
2013-01-26 01:51:00,32.0,31.0,-100.00,North,-999,0.0,0.0,97,-99.99,,,-99.99,,2013-01-26 09:51:00,
2013-01-26 02:01:00,32.0,31.0,-100.00,South,185,3.0,6.0,97,-99.99,,,-99.99,,2013-01-26 10:01:00,
2013-01-26 02:11:00,32.0,31.0,-100.00,SSW,203,0.0,4.0,97,-99.99,,,-99.99,,2013-01-26 10:11:00,
2013-01-26 02:21:00,32.0,31.0,-100.00,SSW,199,0.0,0.0,97,-99.99,,,-99.99,,2013-01-26 10:21:00,
2013-01-26 02:31:00,32.0,31.0,-100.00,SSW,205,0.0,0.0,97,-99.99,,,-99.99,,2013-01-26 10:31:00,
2013-01-26 02:42:00,32.0,31.0,-100.00,North,-999,0.0,0.0,97,-99.99,,,-99.99,,2013-01-26 10:42:00,
2013-01-26 02:52:00,32.0,31.0,-100.00,North,-999,0.0,0.0,97,-99.99,,,-99.99,,2013-01-26 10:52:00,
2013-01-26 03:01:00,32.0,31.0,-100.00,North,-999,0.0,0.0,98,-99.99,,,-99.99,,2013-01-26 11:01:00,
2013-01-26 03:12:00,32.0,31.0,-100.00,North,-999,0.0,0.0,97,-99.99,,,-99.99,,2013-01-26 11:12:00,
2013-01-26 03:22:00,32.0,31.0,-100.00,North,-999,0.0,0.0,97,-99.99,,,-99.99,,2013-01-26 11:22:00,
2013-01-26 03:32:00,31.0,31.0,-100.00,North,-999,0.0,0.0,97,-99.99,,,-99.99,,2013-01-26 11:32:00,
2013-01-26 03:42:00,32.0,31.0,-100.00,North,-999,0.0,0.0,97,-99.99,,,-99.99,,2013-01-26 11:42:00,
2013-01-26 03:52:00,31.0,31.0,-100.00,North,-999,0.0,0.0,97,-99.99,,,-99.99,,2013-01-26 11:52:00,
2013-01-26 04:01:00,31.0,31.0,-100.00,North,-999,0.0,0.0,97,-99.99,,,-99.99,,2013-01-26 12:01:00,
2013-01-26 04:12:00,31.0,31.0,-100.00,North,-999,0.0,0.0,97,-99.99,,,-99.99,,2013-01-26 12:12:00,
2013-01-26 04:22:00,31.0,31.0,-100.00,North,-999,0.0,0.0,97,-99.99,,,-99.99,,2013-01-26 12:22:00,
2013-01-26 04:33:00,31.0,30.0,-100.00,North,-999,0.0,0.0,97,-99.99,,,-99.99,,2013-01-26 12:33:00,
2013-01-26 04:42:00,31.0,30.0,-100.00,North,-999,0.0,0.0,97,-99.99,,,-99.99,,2013-01-26 12:42:00,
2013-01-26 04:52:00,31.0,31.0,-100.00,North,-999,0.0,0.0,97,-99.99,,,-99.99,,2013-01-26 12:52:00,
2013-01-26 05:03:00,31.0,30.0,-100.00,South,175,0.0,0.0,97,-99.99,,,-99.99,,2013-01-26 13:03:00,
2013-01-26 05:12:00,31.0,30.0,-100.00,South,172,0.0,0.0,97,-99.99,,,-99.99,,2013-01-26 13:12:00,
2013-01-26 05:22:00,31.0,30.0,-100.00,North,-999,0.0,0.0,97,-99.99,,,-99.99,,2013-01-26 13:22:00,
2013-01-26 05:32:00,31.0,30.0,-100.00,South,189,0.0,0.0,97,-99.99,,,-99.99,,2013-01-26 13:32:00,
2013-01-26 05:42:00,31.0,30.0,-100.00,North,-999,0.0,0.0,97,-99.99,,,-99.99,,2013-01-26 13:42:00,
2013-01-26 05:52:00,31.0,30.0,-100.00,North,-999,0.0,0.0,98,-99.99,,,-99.99,,2013-01-26 13:52:00,
2013-01-26 06:02:00,31.0,30.0,-100.00,North,-999,0.0,0.0,97,-99.99,,,-99.99,,2013-01-26 14:02:00,
2013-01-26 06:11:00,31.0,31.0,-100.00,North,-999,0.0,0.0,98,-99.99,,,-99.99,,2013-01-26 14:11:00,
2013-01-26 06:21:00,31.0,30.0,-100.00,North,-999,0.0,0.0,97,-99.99,,,-99.99,,2013-01-26 14:21:00,
2013-01-26 06:31:00,31.0,30.0,-100.00,North,-999,0.0,0.0,97,-99.99,,,-99.99,,2013-01-26 14:31:00,
2013-01-26 06:42:00,31.0,30.0,-100.00,North,-999,0.0,0.0,97,-99.99,,,-99.99,,2013-01-26 14:42:00,
2013-01-26 06:53:00,31.0,30.0,-100.00,North,-999,0.0,0.0,97,-99.99,,,-99.99,,2013-01-26 14:53:00,
2013-01-26 07:02:00,31.0,31.0,-100.00,North,-999,0.0,0.0,97,-99.99,,,-99.99,,2013-01-26 15:02:00,
2013-01-26 07:12:00,31.0,31.0,-100.00,North,-999,0.0,0.0,97,-99.99,,,-99.99,,2013-01-26 15:12:00,
2013-01-26 07:22:00,31.0,31.0,-100.00,North,-999,0.0,0.0,98,-99.99,,,-99.99,,2013-01-26 15:22:00,
2013-01-26 07:32:00,31.0,31.0,-100.00,North,-999,0.0,0.0,98,-99.99,,,-99.99,,2013-01-26 15:32:00,
2013-01-26 07:43:00,31.0,30.0,-100.00,North,-999,0.0,0.0,97,-99.99,,,-99.99,,2013-01-26 15:43:00,
2013-01-26 07:52:00,31.0,30.0,-100.00,North,-999,0.0,0.0,97,-99.99,,,-99.99,,2013-01-26 15:52:00,
2013-01-26 08:02:00,31.0,30.0,-100.00,North,-999,0.0,0.0,97,-99.99,,,-99.99,,2013-01-26 16:02:00,
2013-01-26 08:12:00,31.0,30.0,-100.00,North,-999,0.0,0.0,97,-99.99,,,-99.99,,2013-01-26 16:12:00,
2013-01-26 08:21:00,31.0,30.0,-100.00,South,171,0.0,0.0,97,-99.99,,,-99.99,,2013-01-26 16:21:00,
2013-01-26 08:32:00,31.0,31.0,-100.00,North,-999,0.0,0.0,97,-99.99,,,-99.99,,2013-01-26 16:32:00,
2013-01-26 08:42:00,32.0,31.0,-100.00,North,-999,0.0,0.0,97,-99.99,,,-99.99,,2013-01-26 16:42:00,
2013-01-26 08:53:00,32.0,31.0,-100.00,North,-999,0.0,0.0,97,-99.99,,,-99.99,,2013-01-26 16:53:00,
2013-01-26 09:03:00,32.0,31.0,-100.00,North,-999,0.0,0.0,97,-99.99,,,-99.99,,2013-01-26 17:03:00,
2013-01-26 09:12:00,32.0,31.0,-100.00,South,171,0.0,0.0,97,-99.99,,,-99.99,,2013-01-26 17:12:00,
2013-01-26 09:22:00,32.0,31.0,-100.00,SE,141,1.0,3.0,97,-99.99,,,-99.99,,2013-01-26 17:22:00,
2013-01-26 09:32:00,32.0,31.0,-100.00,SW,230,1.0,3.0,97,-99.99,,,-99.99,,2013-01-26 17:32:00,
2013-01-26 09:42:00,32.0,31.0,-100.00,WSW,254,2.0,5.0,97,-99.99,,,-99.99,,2013-01-26 17:42:00,
2013-01-26 09:52:00,32.0,32.0,-100.00,WSW,239,3.0,5.0,97,-99.99,,,-99.99,,2013-01-26 17:52:00,
2013-01-26 10:02:00,33.0,32.0,-100.00,SW,227,2.0,4.0,97,-99.99,,,-99.99,,2013-01-26 18:02:00,
2013-01-26 10:11:00,33.0,32.0,-100.00,WSW,248,1.0,3.0,97,-99.99,,,-99.99,,2013-01-26 18:11:00,
2013-01-26 10:22:00,33.0,33.0,-100.00,SSW,210,2.0,4.0,97,-99.99,,,-99.99,,2013-01-26 18:22:00,
2013-01-26 10:32:00,33.0,33.0,-100.00,SSW,210,2.0,4.0,97,-99.99,,,-99.99,,2013-01-26 18:32:00,
2013-01-26 10:42:00,33.0,33.0,-100.00,SW,220,1.0,3.0,97,-99.99,,,-99.99,,2013-01-26 18:42:00,
2013-01-26 10:52:00,34.0,33.0,-100.00,SW,224,2.0,4.0,97,-99.99,,,-99.99,,2013-01-26 18:52:00,
2013-01-26 11:03:00,34.0,33.0,-100.00,WSW,243,1.0,3.0,97,-99.99,,,-99.99,,2013-01-26 19:03:00,
2013-01-26 11:11:00,34.0,34.0,-100.00,WSW,250,0.0,2.0,97,-99.99,,,-99.99,,2013-01-26 19:11:00,
2013-01-26 11:22:00,34.0,34.0,-100.00,NNW,329,0.0,2.0,97,-99.99,,,-99.99,,2013-01-26 19:22:00,
2013-01-26 11:32:00,35.0,34.0,-100.00,ENE,59,1.0,4.0,97,-99.99,,,-99.99,,2013-01-26 19:32:00,
2013-01-26 11:42:00,35.0,34.0,-100.00,NE,52,3.0,8.0,97,-99.99,,,-99.99,,2013-01-26 19:42:00,
2013-01-26 11:52:00,34.0,34.0,-100.00,NNE,31,4.0,7.0,97,-99.99,,,-99.99,,2013-01-26 19:52:00,
2013-01-26 12:02:00,34.0,33.0,-100.00,NE,40,5.0,10.0,97,-99.99,,,-99.99,,2013-01-26 20:02:00,
2013-01-26 12:11:00,34.0,33.0,-100.00,NE,40,5.0,10.0,97,-99.99,,,-99.99,,2013-01-26 20:11:00,
2013-01-26 12:21:00,35.0,34.0,-100.00,East,89,0.0,1.0,97,-99.99,,,-99.99,,2013-01-26 20:21:00,
2013-01-26 12:32:00,36.0,35.0,-100.00,East,92,0.0,2.0,97,-99.99,,,-99.99,,2013-01-26 20:32:00,
2013-01-26 12:42:00,36.0,35.0,-100.00,SSW,213,1.0,5.0,97,-99.99,,,-99.99,,2013-01-26 20:42:00,
2013-01-26 12:52:00,35.0,35.0,-100.00,SW,217,5.0,9.0,97,-99.99,,,-99.99,,2013-01-26 20:52:00,
2013-01-26 13:02:00,35.0,35.0,-100.00,SW,216,6.0,10.0,97,-99.99,,,-99.99,,2013-01-26 21:02:00,
2013-01-26 13:12:00,35.0,34.0,-100.00,SW,216,6.0,10.0,97,-99.99,,,-99.99,,2013-01-26 21:12:00,
2013-01-26 13:22:00,35.0,34.0,-100.00,SW,219,7.0,11.0,97,-99.99,,,-99.99,,2013-01-26 21:22:00,
2013-01-26 13:32:00,35.0,34.0,-100.00,SSW,210,7.0,11.0,97,-99.99,,,-99.99,,2013-01-26 21:32:00,
2013-01-26 13:42:00,35.0,34.0,-100.00,SW,220,7.0,11.0,97,-99.99,,,-99.99,,2013-01-26 21:42:00,
2013-01-26 13:51:00,35.0,35.0,-100.00,SW,217,6.0,10.0,97,-99.99,,,-99.99,,2013-01-26 21:51:00,
2013-01-26 14:01:00,35.0,34.0,-100.00,SW,217,5.0,8.0,97,-99.99,,,-99.99,,2013-01-26 22:01:00,
2013-01-26 14:11:00,35.0,34.0,-100.00,SW,220,5.0,9.0,96,-99.99,,,-99.99,,2013-01-26 22:11:00,
2013-01-26 14:21:00,35.0,34.0,-100.00,SSW,206,5.0,9.0,97,-99.99,,,-99.99,,2013-01-26 22:21:00,
2013-01-26 14:31:00,36.0,35.0,-100.00,South,191,5.0,8.0,97,-99.99,,,-99.99,,2013-01-26 22:31:00,
2013-01-26 14:42:00,35.0,34.0,-100.00,SSW,206,6.0,9.0,96,-99.99,,,-99.99,,2013-01-26 22:42:00,
2013-01-26 14:51:00,35.0,34.0,-100.00,SW,219,6.0,12.0,97,-99.99,,,-99.99,,2013-01-26 22:51:00,
2013-01-26 15:01:00,35.0,34.0,-100.00,SW,219,6.0,12.0,97,-99.99,,,-99.99,,2013-01-26 23:01:00,
2013-01-26 15:11:00,35.0,34.0,-100.00,SW,216,6.0,11.0,96,-99.99,,,-99.99,,2013-01-26 23:11:00,
2013-01-26 15:21:00,35.0,34.0,-100.00,SW,216,6.0,12.0,96,-99.99,,,-99.99,,2013-01-26 23:21:00,
2013-01-26 15:32:00,35.0,34.0,-100.00,SW,215,7.0,11.0,96,-99.99,,,-99.99,,2013-01-26 23:32:00,
2013-01-26 15:41:00,35.0,34.0,-100.00,SW,215,7.0,11.0,96,-99.99,,,-99.99,,2013-01-26 23:41:00,
2013-01-26 15:52:00,36.0,34.0,-100.00,SW,220,6.0,11.0,94,-99.99,,,-99.99,,2013-01-26 23:52:00,
2013-01-26 16:02:00,36.0,34.0,-100.00,SSW,213,6.0,10.0,93,-99.99,,,-99.99,,2013-01-27 00:02:00,
2013-01-26 16:11:00,36.0,34.0,-100.00,SW,215,6.0,10.0,92,-99.99,,,-99.99,,2013-01-27 00:11:00,
2013-01-26 16:21:00,35.0,33.0,-100.00,SW,216,6.0,9.0,93,-99.99,,,-99.99,,2013-01-27 00:21:00,
2013-01-26 16:31:00,35.0,33.0,-100.00,SW,216,6.0,9.0,93,-99.99,,,-99.99,,2013-01-27 00:31:00,
2013-01-26 16:41:00,35.0,33.0,-100.00,SSW,212,5.0,7.0,92,-99.99,,,-99.99,,2013-01-27 00:41:00,
2013-01-26 16:51:00,35.0,33.0,-100.00,SW,216,4.0,6.0,92,-99.99,,,-99.99,,2013-01-27 00:51:00,
2013-01-26 17:01:00,35.0,33.0,-100.00,SW,216,4.0,6.0,92,-99.99,,,-99.99,,2013-01-27 01:01:00,
2013-01-26 17:11:00,34.0,32.0,-100.00,SW,222,4.0,6.0,93,-99.99,,,-99.99,,2013-01-27 01:11:00,
2013-01-26 17:22:00,34.0,33.0,-100.00,SW,227,4.0,6.0,94,-99.99,,,-99.99,,2013-01-27 01:22:00,
2013-01-26 17:32:00,34.0,33.0,-100.00,SW,215,5.0,9.0,95,-99.99,,,-99.99,,2013-01-27 01:32:00,
2013-01-26 17:41:00,34.0,33.0,-100.00,SW,222,4.0,6.0,95,-99.99,,,-99.99,,2013-01-27 01:41:00,
2013-01-26 17:51:00,34.0,33.0,-100.00,SW,223,3.0,5.0,95,-99.99,,,-99.99,,2013-01-27 01:51:00,
2013-01-26 18:01:00,34.0,33.0,-100.00,SW,222,2.0,4.0,96,-99.99,,,-99.99,,2013-01-27 02:01:00,
2013-01-26 18:11:00,33.0,32.0,-100.00,SW,227,2.0,5.0,96,-99.99,,,-99.99,,2013-01-27 02:11:00,
2013-01-26 18:21:00,33.0,32.0,-100.00,WSW,241,4.0,6.0,96,-99.99,,,-99.99,,2013-01-27 02:21:00,
2013-01-26 18:31:00,33.0,32.0,-100.00,SW,222,4.0,7.0,96,-99.99,,,-99.99,,2013-01-27 02:31:00,
2013-01-26 18:41:00,33.0,32.0,-100.00,SSW,213,4.0,7.0,96,-99.99,,,-99.99,,2013-01-27 02:41:00,
2013-01-26 18:52:00,32.0,31.0,-100.00,SSW,208,4.0,6.0,96,-99.99,,,-99.99,,2013-01-27 02:52:00,
2013-01-26 19:01:00,32.0,31.0,-100.00,South,172,2.0,4.0,97,-99.99,,,-99.99,,2013-01-27 03:01:00,
2013-01-26 19:11:00,32.0,32.0,-100.00,South,186,2.0,5.0,97,-99.99,,,-99.99,,2013-01-27 03:11:00,
2013-01-26 19:21:00,32.0,32.0,-100.00,SW,216,3.0,7.0,97,-99.99,,,-99.99,,2013-01-27 03:21:00,
2013-01-26 19:31:00,33.0,32.0,-100.00,SSW,210,3.0,6.0,97,-99.99,,,-99.99,,2013-01-27 03:31:00,
2013-01-26 19:41:00,33.0,32.0,-100.00,SSW,210,3.0,6.0,97,-99.99,,,-99.99,,2013-01-27 03:41:00,
2013-01-26 19:51:00,33.0,32.0,-100.00,SSW,202,4.0,7.0,97,-99.99,,,-99.99,,2013-01-27 03:51:00,
2013-01-26 20:01:00,33.0,32.0,-100.00,SSW,202,5.0,7.0,97,-99.99,,,-99.99,,2013-01-27 04:01:00,
2013-01-26 20:11:00,33.0,32.0,-100.00,SSW,205,5.0,9.0,97,-99.99,,,-99.99,,2013-01-27 04:11:00,
2013-01-26 20:21:00,33.0,32.0,-100.00,SSW,203,5.0,8.0,97,-99.99,,,-99.99,,2013-01-27 04:21:00,
2013-01-26 20:31:00,33.0,32.0,-100.00,SSW,192,6.0,10.0,97,-99.99,,,-99.99,,2013-01-27 04:31:00,
2013-01-26 20:41:00,33.0,32.0,-100.00,SSW,193,6.0,11.0,97,-99.99,,,-99.99,,2013-01-27 04:41:00,
2013-01-26 20:51:00,33.0,32.0,-100.00,SSW,195,6.0,11.0,97,-99.99,,,-99.99,,2013-01-27 04:51:00,
2013-01-26 21:03:00,33.0,32.0,-100.00,SSW,205,6.0,10.0,97,-99.99,,,-99.99,,2013-01-27 05:03:00,
2013-01-26 21:11:00,33.0,32.0,-100.00,SSW,208,7.0,12.0,97,-99.99,,,-99.99,,2013-01-27 05:11:00,
2013-01-26 21:22:00,33.0,32.0,-100.00,SSW,200,7.0,12.0,97,-99.99,,,-99.99,,2013-01-27 05:22:00,
2013-01-26 21:31:00,33.0,32.0,-100.00,South,188,5.0,12.0,97,-99.99,,,-99.99,,2013-01-27 05:31:00,
2013-01-26 21:41:00,33.0,32.0,-100.00,South,186,5.0,11.0,96,-99.99,,,-99.99,,2013-01-27 05:41:00,
2013-01-26 21:52:00,34.0,32.0,-100.00,South,191,5.0,8.0,92,-99.99,,,-99.99,,2013-01-27 05:52:00,
2013-01-26 22:01:00,34.0,31.0,-100.00,SSW,193,4.0,10.0,91,-99.99,,,-99.99,,2013-01-27 06:01:00,
2013-01-26 22:11:00,34.0,31.0,-100.00,SSW,196,6.0,16.0,90,-99.99,,,-99.99,,2013-01-27 06:11:00,
2013-01-26 22:21:00,34.0,31.0,-100.00,SSW,196,7.0,12.0,89,-99.99,,,-99.99,,2013-01-27 06:21:00,
2013-01-26 22:31:00,33.0,31.0,-100.00,SSW,212,4.0,9.0,91,-99.99,,,-99.99,,2013-01-27 06:31:00,
2013-01-26 22:41:00,34.0,31.0,-100.00,South,185,7.0,13.0,88,-99.99,,,-99.99,,2013-01-27 06:41:00,
2013-01-26 22:51:00,34.0,31.0,-100.00,South,172,7.0,15.0,87,-99.99,,,-99.99,,2013-01-27 06:51:00,
2013-01-26 23:01:00,35.0,31.0,-100.00,South,178,6.0,13.0,85,-99.99,,,-99.99,,2013-01-27 07:01:00,
2013-01-26 23:13:00,34.0,31.0,-100.00,SSW,196,8.0,14.0,89,-99.99,,,-99.99,,2013-01-27 07:13:00,
2013-01-26 23:21:00,34.0,31.0,-100.00,SSW,195,7.0,12.0,89,-99.99,,,-99.99,,2013-01-27 07:21:00,
2013-01-26 23:31:00,33.0,31.0,-100.00,SSW,208,6.0,11.0,92,-99.99,,,-99.99,,2013-01-27 07:31:00,
2013-01-26 23:41:00,34.0,32.0,-100.00,SSW,196,7.0,14.0,91,-99.99,,,-99.99,,2013-01-27 07:41:00,
2013-01-26 23:51:00,34.0,32.0,-100.00,South,191,9.0,18.0,92,-99.99,,,-99.99,,2013-01-27 07:51:00,